sensor_id;sensor_type;location;lat;lon;timestamp;P1;durP1;ratioP1;P2;durP2;ratioP2
16262;SDS011;8239;48.594;8.598;2022-12-11T00:01:39;15.20;;;7.00;;
16262;SDS011;8239;48.594;8.598;2022-12-11T00:04:06;16.83;;;7.27;;
16262;SDS011;8239;48.594;8.598;2022-12-11T00:06:34;14.83;;;7.60;;
16262;SDS011;8239;48.594;8.598;2022-12-11T00:09:01;13.13;;;7.10;;
16262;SDS011;8239;48.594;8.598;2022-12-11T00:11:28;15.57;;;7.20;;
16262;SDS011;8239;48.594;8.598;2022-12-11T00:13:55;13.67;;;7.13;;
16262;SDS011;8239;48.594;8.598;2022-12-11T00:16:22;14.00;;;7.03;;
16262;SDS011;8239;48.594;8.598;2022-12-11T00:18:49;13.90;;;7.07;;
16262;SDS011;8239;48.594;8.598;2022-12-11T00:21:16;13.00;;;6.83;;
16262;SDS011;8239;48.594;8.598;2022-12-11T00:23:44;14.63;;;7.50;;
16262;SDS011;8239;48.594;8.598;2022-12-11T00:26:12;13.33;;;6.97;;
16262;SDS011;8239;48.594;8.598;2022-12-11T00:28:40;16.00;;;7.30;;
16262;SDS011;8239;48.594;8.598;2022-12-11T00:31:09;14.90;;;7.70;;
16262;SDS011;8239;48.594;8.598;2022-12-11T00:33:38;13.77;;;6.50;;
16262;SDS011;8239;48.594;8.598;2022-12-11T00:36:09;12.70;;;6.93;;
16262;SDS011;8239;48.594;8.598;2022-12-11T00:38:37;13.50;;;6.90;;
16262;SDS011;8239;48.594;8.598;2022-12-11T00:41:06;13.43;;;7.07;;
16262;SDS011;8239;48.594;8.598;2022-12-11T00:43:33;13.73;;;6.80;;
16262;SDS011;8239;48.594;8.598;2022-12-11T00:46:00;11.13;;;5.97;;
16262;SDS011;8239;48.594;8.598;2022-12-11T00:48:27;12.17;;;6.20;;
16262;SDS011;8239;48.594;8.598;2022-12-11T00:50:54;12.10;;;6.10;;
16262;SDS011;8239;48.594;8.598;2022-12-11T00:53:21;12.03;;;6.50;;
16262;SDS011;8239;48.594;8.598;2022-12-11T00:55:48;11.27;;;5.97;;
16262;SDS011;8239;48.594;8.598;2022-12-11T00:58:16;12.13;;;6.30;;
16262;SDS011;8239;48.594;8.598;2022-12-11T01:00:43;11.90;;;5.97;;
16262;SDS011;8239;48.594;8.598;2022-12-11T01:03:12;12.13;;;5.90;;
16262;SDS011;8239;48.594;8.598;2022-12-11T01:05:40;10.90;;;6.20;;
16262;SDS011;8239;48.594;8.598;2022-12-11T01:08:07;11.03;;;6.00;;
16262;SDS011;8239;48.594;8.598;2022-12-11T01:10:34;10.97;;;5.57;;
16262;SDS011;8239;48.594;8.598;2022-12-11T01:13:00;10.23;;;5.80;;
16262;SDS011;8239;48.594;8.598;2022-12-11T01:15:31;11.57;;;6.03;;
16262;SDS011;8239;48.594;8.598;2022-12-11T01:17:59;10.70;;;5.60;;
16262;SDS011;8239;48.594;8.598;2022-12-11T01:20:26;11.80;;;6.00;;
16262;SDS011;8239;48.594;8.598;2022-12-11T01:22:54;11.83;;;6.37;;
16262;SDS011;8239;48.594;8.598;2022-12-11T01:25:22;10.43;;;5.77;;
16262;SDS011;8239;48.594;8.598;2022-12-11T01:27:50;10.20;;;5.73;;
16262;SDS011;8239;48.594;8.598;2022-12-11T01:30:18;12.23;;;6.17;;
16262;SDS011;8239;48.594;8.598;2022-12-11T01:32:48;10.53;;;6.23;;
16262;SDS011;8239;48.594;8.598;2022-12-11T01:35:15;10.33;;;6.37;;
16262;SDS011;8239;48.594;8.598;2022-12-11T01:37:42;10.90;;;6.30;;
16262;SDS011;8239;48.594;8.598;2022-12-11T01:40:10;11.80;;;6.90;;
16262;SDS011;8239;48.594;8.598;2022-12-11T01:42:39;12.63;;;6.17;;
16262;SDS011;8239;48.594;8.598;2022-12-11T01:48:03;9.60;;;5.63;;
16262;SDS011;8239;48.594;8.598;2022-12-11T01:50:35;10.17;;;5.70;;
16262;SDS011;8239;48.594;8.598;2022-12-11T01:53:06;10.13;;;5.63;;
16262;SDS011;8239;48.594;8.598;2022-12-11T01:55:35;10.73;;;5.70;;
16262;SDS011;8239;48.594;8.598;2022-12-11T01:58:04;11.40;;;6.17;;
16262;SDS011;8239;48.594;8.598;2022-12-11T02:00:32;10.57;;;6.27;;
16262;SDS011;8239;48.594;8.598;2022-12-11T02:02:59;11.70;;;5.70;;
16262;SDS011;8239;48.594;8.598;2022-12-11T02:05:28;9.10;;;5.70;;
16262;SDS011;8239;48.594;8.598;2022-12-11T02:07:55;11.33;;;5.77;;
16262;SDS011;8239;48.594;8.598;2022-12-11T02:10:27;11.37;;;5.97;;
16262;SDS011;8239;48.594;8.598;2022-12-11T02:13:06;11.67;;;6.20;;
16262;SDS011;8239;48.594;8.598;2022-12-11T02:15:40;12.40;;;7.00;;
16262;SDS011;8239;48.594;8.598;2022-12-11T02:18:15;10.90;;;6.10;;
16262;SDS011;8239;48.594;8.598;2022-12-11T02:20:53;12.77;;;5.97;;
16262;SDS011;8239;48.594;8.598;2022-12-11T02:23:43;10.77;;;6.10;;
16262;SDS011;8239;48.594;8.598;2022-12-11T02:26:26;11.37;;;6.10;;
16262;SDS011;8239;48.594;8.598;2022-12-11T02:29:18;9.97;;;5.63;;
16262;SDS011;8239;48.594;8.598;2022-12-11T02:31:49;12.13;;;6.10;;
16262;SDS011;8239;48.594;8.598;2022-12-11T02:34:20;10.33;;;6.17;;
16262;SDS011;8239;48.594;8.598;2022-12-11T02:36:53;10.40;;;6.30;;
16262;SDS011;8239;48.594;8.598;2022-12-11T02:39:27;10.17;;;5.70;;
16262;SDS011;8239;48.594;8.598;2022-12-11T02:41:56;9.37;;;5.47;;
16262;SDS011;8239;48.594;8.598;2022-12-11T02:44:26;10.90;;;6.27;;
16262;SDS011;8239;48.594;8.598;2022-12-11T02:46:58;9.93;;;6.13;;
16262;SDS011;8239;48.594;8.598;2022-12-11T02:49:27;10.40;;;6.33;;
16262;SDS011;8239;48.594;8.598;2022-12-11T02:51:55;12.90;;;6.67;;
16262;SDS011;8239;48.594;8.598;2022-12-11T02:54:26;10.53;;;6.00;;
16262;SDS011;8239;48.594;8.598;2022-12-11T02:56:58;11.00;;;5.90;;
16262;SDS011;8239;48.594;8.598;2022-12-11T02:59:31;10.90;;;6.07;;
16262;SDS011;8239;48.594;8.598;2022-12-11T03:02:01;9.67;;;5.83;;
16262;SDS011;8239;48.594;8.598;2022-12-11T03:04:28;10.33;;;5.50;;
16262;SDS011;8239;48.594;8.598;2022-12-11T03:06:57;10.30;;;5.67;;
16262;SDS011;8239;48.594;8.598;2022-12-11T03:09:36;10.77;;;6.60;;
16262;SDS011;8239;48.594;8.598;2022-12-11T03:12:03;10.10;;;5.93;;
16262;SDS011;8239;48.594;8.598;2022-12-11T03:14:32;10.40;;;5.90;;
16262;SDS011;8239;48.594;8.598;2022-12-11T03:17:02;9.97;;;5.77;;
16262;SDS011;8239;48.594;8.598;2022-12-11T03:19:34;11.27;;;5.77;;
16262;SDS011;8239;48.594;8.598;2022-12-11T03:22:05;9.77;;;5.53;;
16262;SDS011;8239;48.594;8.598;2022-12-11T03:24:37;9.20;;;5.40;;
16262;SDS011;8239;48.594;8.598;2022-12-11T03:27:09;8.97;;;5.87;;
16262;SDS011;8239;48.594;8.598;2022-12-11T03:29:46;10.30;;;5.57;;
16262;SDS011;8239;48.594;8.598;2022-12-11T03:32:20;10.53;;;5.67;;
16262;SDS011;8239;48.594;8.598;2022-12-11T03:34:51;12.67;;;6.73;;
16262;SDS011;8239;48.594;8.598;2022-12-11T03:37:22;11.57;;;6.00;;
16262;SDS011;8239;48.594;8.598;2022-12-11T03:39:54;9.53;;;5.93;;
16262;SDS011;8239;48.594;8.598;2022-12-11T03:42:27;9.80;;;5.93;;
16262;SDS011;8239;48.594;8.598;2022-12-11T03:44:56;10.97;;;6.13;;
16262;SDS011;8239;48.594;8.598;2022-12-11T03:47:25;11.13;;;5.93;;
16262;SDS011;8239;48.594;8.598;2022-12-11T03:49:54;10.80;;;5.80;;
16262;SDS011;8239;48.594;8.598;2022-12-11T03:52:23;10.93;;;5.73;;
16262;SDS011;8239;48.594;8.598;2022-12-11T03:54:52;12.10;;;6.27;;
16262;SDS011;8239;48.594;8.598;2022-12-11T03:57:23;11.03;;;6.27;;
16262;SDS011;8239;48.594;8.598;2022-12-11T03:59:55;14.37;;;6.47;;
16262;SDS011;8239;48.594;8.598;2022-12-11T04:02:23;12.00;;;6.13;;
16262;SDS011;8239;48.594;8.598;2022-12-11T04:04:50;11.33;;;6.30;;
16262;SDS011;8239;48.594;8.598;2022-12-11T04:07:17;11.97;;;6.77;;
16262;SDS011;8239;48.594;8.598;2022-12-11T04:09:44;13.33;;;6.97;;
16262;SDS011;8239;48.594;8.598;2022-12-11T04:12:11;13.13;;;6.67;;
16262;SDS011;8239;48.594;8.598;2022-12-11T04:14:38;15.20;;;7.20;;
16262;SDS011;8239;48.594;8.598;2022-12-11T04:17:26;15.37;;;7.20;;
16262;SDS011;8239;48.594;8.598;2022-12-11T04:20:10;12.87;;;6.50;;
16262;SDS011;8239;48.594;8.598;2022-12-11T04:22:55;13.47;;;7.00;;
16262;SDS011;8239;48.594;8.598;2022-12-11T04:25:39;12.10;;;6.67;;
16262;SDS011;8239;48.594;8.598;2022-12-11T04:28:06;14.30;;;6.73;;
16262;SDS011;8239;48.594;8.598;2022-12-11T04:30:33;14.17;;;7.07;;
16262;SDS011;8239;48.594;8.598;2022-12-11T04:33:02;14.33;;;6.93;;
16262;SDS011;8239;48.594;8.598;2022-12-11T04:35:29;14.67;;;7.63;;
16262;SDS011;8239;48.594;8.598;2022-12-11T04:37:56;13.80;;;7.20;;
16262;SDS011;8239;48.594;8.598;2022-12-11T04:40:23;13.43;;;6.70;;
16262;SDS011;8239;48.594;8.598;2022-12-11T04:42:50;12.30;;;6.67;;
16262;SDS011;8239;48.594;8.598;2022-12-11T04:45:17;12.63;;;7.17;;
16262;SDS011;8239;48.594;8.598;2022-12-11T04:47:44;13.50;;;6.87;;
16262;SDS011;8239;48.594;8.598;2022-12-11T04:50:13;14.73;;;7.20;;
16262;SDS011;8239;48.594;8.598;2022-12-11T04:52:41;12.70;;;7.40;;
16262;SDS011;8239;48.594;8.598;2022-12-11T04:55:08;12.83;;;6.90;;
16262;SDS011;8239;48.594;8.598;2022-12-11T04:57:36;13.33;;;7.27;;
16262;SDS011;8239;48.594;8.598;2022-12-11T05:00:03;14.40;;;7.37;;
16262;SDS011;8239;48.594;8.598;2022-12-11T05:02:33;13.37;;;7.20;;
16262;SDS011;8239;48.594;8.598;2022-12-11T05:05:01;14.30;;;7.30;;
16262;SDS011;8239;48.594;8.598;2022-12-11T05:07:30;13.30;;;7.17;;
16262;SDS011;8239;48.594;8.598;2022-12-11T05:09:57;13.30;;;6.97;;
16262;SDS011;8239;48.594;8.598;2022-12-11T05:12:27;14.67;;;7.47;;
16262;SDS011;8239;48.594;8.598;2022-12-11T05:14:54;13.03;;;7.43;;
16262;SDS011;8239;48.594;8.598;2022-12-11T05:17:21;15.93;;;7.33;;
16262;SDS011;8239;48.594;8.598;2022-12-11T05:19:48;13.43;;;7.17;;
16262;SDS011;8239;48.594;8.598;2022-12-11T05:22:16;14.67;;;7.30;;
16262;SDS011;8239;48.594;8.598;2022-12-11T05:24:45;14.27;;;7.73;;
16262;SDS011;8239;48.594;8.598;2022-12-11T05:27:12;13.50;;;7.50;;
16262;SDS011;8239;48.594;8.598;2022-12-11T05:29:40;13.57;;;7.10;;
16262;SDS011;8239;48.594;8.598;2022-12-11T05:32:07;12.20;;;6.77;;
16262;SDS011;8239;48.594;8.598;2022-12-11T05:34:34;14.23;;;7.13;;
16262;SDS011;8239;48.594;8.598;2022-12-11T05:37:01;21.70;;;15.60;;
16262;SDS011;8239;48.594;8.598;2022-12-11T05:39:28;12.07;;;8.37;;
16262;SDS011;8239;48.594;8.598;2022-12-11T05:41:56;14.73;;;8.10;;
16262;SDS011;8239;48.594;8.598;2022-12-11T05:44:23;15.90;;;8.33;;
16262;SDS011;8239;48.594;8.598;2022-12-11T05:46:51;13.23;;;7.43;;
16262;SDS011;8239;48.594;8.598;2022-12-11T05:49:18;13.00;;;6.50;;
16262;SDS011;8239;48.594;8.598;2022-12-11T05:51:48;13.30;;;7.20;;
16262;SDS011;8239;48.594;8.598;2022-12-11T05:54:16;14.07;;;7.43;;
16262;SDS011;8239;48.594;8.598;2022-12-11T05:56:43;14.07;;;7.47;;
16262;SDS011;8239;48.594;8.598;2022-12-11T05:59:11;14.13;;;7.50;;
16262;SDS011;8239;48.594;8.598;2022-12-11T06:01:40;13.60;;;7.47;;
16262;SDS011;8239;48.594;8.598;2022-12-11T06:04:08;16.57;;;8.23;;
16262;SDS011;8239;48.594;8.598;2022-12-11T06:06:36;13.83;;;7.27;;
16262;SDS011;8239;48.594;8.598;2022-12-11T06:09:05;14.60;;;7.50;;
16262;SDS011;8239;48.594;8.598;2022-12-11T06:11:32;13.97;;;7.40;;
16262;SDS011;8239;48.594;8.598;2022-12-11T06:14:01;16.90;;;8.07;;
16262;SDS011;8239;48.594;8.598;2022-12-11T06:16:30;15.87;;;7.50;;
16262;SDS011;8239;48.594;8.598;2022-12-11T06:18:58;15.93;;;8.07;;
16262;SDS011;8239;48.594;8.598;2022-12-11T06:21:25;15.10;;;8.50;;
16262;SDS011;8239;48.594;8.598;2022-12-11T06:23:54;16.40;;;8.33;;
16262;SDS011;8239;48.594;8.598;2022-12-11T06:26:22;15.33;;;8.40;;
16262;SDS011;8239;48.594;8.598;2022-12-11T06:28:49;15.63;;;7.67;;
16262;SDS011;8239;48.594;8.598;2022-12-11T06:31:17;15.60;;;8.03;;
16262;SDS011;8239;48.594;8.598;2022-12-11T06:33:45;14.07;;;7.47;;
16262;SDS011;8239;48.594;8.598;2022-12-11T06:36:14;14.37;;;7.40;;
16262;SDS011;8239;48.594;8.598;2022-12-11T06:38:43;14.03;;;7.20;;
16262;SDS011;8239;48.594;8.598;2022-12-11T06:41:10;14.10;;;7.17;;
16262;SDS011;8239;48.594;8.598;2022-12-11T06:43:38;15.93;;;7.60;;
16262;SDS011;8239;48.594;8.598;2022-12-11T06:46:06;13.47;;;7.30;;
16262;SDS011;8239;48.594;8.598;2022-12-11T06:48:34;15.53;;;7.07;;
16262;SDS011;8239;48.594;8.598;2022-12-11T06:51:05;14.73;;;7.37;;
16262;SDS011;8239;48.594;8.598;2022-12-11T06:53:33;17.43;;;7.73;;
16262;SDS011;8239;48.594;8.598;2022-12-11T06:56:00;13.80;;;7.33;;
16262;SDS011;8239;48.594;8.598;2022-12-11T06:58:28;17.37;;;7.93;;
16262;SDS011;8239;48.594;8.598;2022-12-11T07:00:55;23.63;;;13.68;;
16262;SDS011;8239;48.594;8.598;2022-12-11T07:03:22;28.10;;;16.70;;
16262;SDS011;8239;48.594;8.598;2022-12-11T07:05:49;21.07;;;11.07;;
16262;SDS011;8239;48.594;8.598;2022-12-11T07:08:19;20.63;;;9.93;;
16262;SDS011;8239;48.594;8.598;2022-12-11T07:10:46;18.90;;;9.20;;
16262;SDS011;8239;48.594;8.598;2022-12-11T07:13:13;19.63;;;8.60;;
16262;SDS011;8239;48.594;8.598;2022-12-11T07:15:40;19.47;;;9.20;;
16262;SDS011;8239;48.594;8.598;2022-12-11T07:18:07;16.60;;;7.93;;
16262;SDS011;8239;48.594;8.598;2022-12-11T07:20:34;15.73;;;8.03;;
16262;SDS011;8239;48.594;8.598;2022-12-11T07:23:01;18.70;;;8.97;;
16262;SDS011;8239;48.594;8.598;2022-12-11T07:25:30;18.73;;;8.23;;
16262;SDS011;8239;48.594;8.598;2022-12-11T07:27:57;14.07;;;6.97;;
16262;SDS011;8239;48.594;8.598;2022-12-11T07:30:24;15.03;;;7.83;;
16262;SDS011;8239;48.594;8.598;2022-12-11T07:32:51;18.90;;;8.33;;
16262;SDS011;8239;48.594;8.598;2022-12-11T07:35:18;17.97;;;8.33;;
16262;SDS011;8239;48.594;8.598;2022-12-11T07:37:45;14.90;;;9.00;;
16262;SDS011;8239;48.594;8.598;2022-12-11T07:40:12;16.33;;;9.60;;
16262;SDS011;8239;48.594;8.598;2022-12-11T07:42:40;22.87;;;11.47;;
16262;SDS011;8239;48.594;8.598;2022-12-11T07:45:08;15.97;;;9.83;;
16262;SDS011;8239;48.594;8.598;2022-12-11T07:47:36;16.00;;;9.40;;
16262;SDS011;8239;48.594;8.598;2022-12-11T07:50:06;15.87;;;10.00;;
16262;SDS011;8239;48.594;8.598;2022-12-11T07:52:34;13.20;;;8.57;;
16262;SDS011;8239;48.594;8.598;2022-12-11T07:55:02;11.57;;;7.80;;
16262;SDS011;8239;48.594;8.598;2022-12-11T07:57:30;10.63;;;7.10;;
16262;SDS011;8239;48.594;8.598;2022-12-11T07:59:58;10.80;;;6.80;;
16262;SDS011;8239;48.594;8.598;2022-12-11T08:02:25;9.87;;;7.13;;
16262;SDS011;8239;48.594;8.598;2022-12-11T08:04:52;10.20;;;7.10;;
16262;SDS011;8239;48.594;8.598;2022-12-11T08:07:19;9.83;;;7.03;;
16262;SDS011;8239;48.594;8.598;2022-12-11T08:09:46;9.73;;;5.90;;
16262;SDS011;8239;48.594;8.598;2022-12-11T08:12:13;8.90;;;5.70;;
16262;SDS011;8239;48.594;8.598;2022-12-11T08:14:40;8.90;;;5.80;;
16262;SDS011;8239;48.594;8.598;2022-12-11T08:17:08;9.53;;;6.03;;
16262;SDS011;8239;48.594;8.598;2022-12-11T08:19:36;10.37;;;6.47;;
16262;SDS011;8239;48.594;8.598;2022-12-11T08:22:03;13.87;;;8.17;;
16262;SDS011;8239;48.594;8.598;2022-12-11T08:24:30;12.17;;;7.60;;
16262;SDS011;8239;48.594;8.598;2022-12-11T08:26:57;11.30;;;7.37;;
16262;SDS011;8239;48.594;8.598;2022-12-11T08:29:24;10.53;;;6.60;;
16262;SDS011;8239;48.594;8.598;2022-12-11T08:31:51;10.60;;;7.40;;
16262;SDS011;8239;48.594;8.598;2022-12-11T08:34:20;10.50;;;6.60;;
16262;SDS011;8239;48.594;8.598;2022-12-11T08:36:47;11.37;;;6.80;;
16262;SDS011;8239;48.594;8.598;2022-12-11T08:39:14;11.40;;;6.87;;
16262;SDS011;8239;48.594;8.598;2022-12-11T08:41:41;12.13;;;7.47;;
16262;SDS011;8239;48.594;8.598;2022-12-11T08:44:10;10.00;;;6.53;;
16262;SDS011;8239;48.594;8.598;2022-12-11T08:46:37;12.17;;;7.03;;
16262;SDS011;8239;48.594;8.598;2022-12-11T08:49:04;11.03;;;6.40;;
16262;SDS011;8239;48.594;8.598;2022-12-11T08:51:33;10.47;;;6.60;;
16262;SDS011;8239;48.594;8.598;2022-12-11T08:54:00;12.57;;;6.63;;
16262;SDS011;8239;48.594;8.598;2022-12-11T08:56:27;12.23;;;7.00;;
16262;SDS011;8239;48.594;8.598;2022-12-11T08:58:55;13.97;;;8.23;;
16262;SDS011;8239;48.594;8.598;2022-12-11T09:01:25;12.70;;;7.70;;
16262;SDS011;8239;48.594;8.598;2022-12-11T09:03:53;14.17;;;7.63;;
16262;SDS011;8239;48.594;8.598;2022-12-11T09:06:23;10.87;;;7.33;;
16262;SDS011;8239;48.594;8.598;2022-12-11T09:08:52;10.03;;;6.70;;
16262;SDS011;8239;48.594;8.598;2022-12-11T09:11:20;9.70;;;6.23;;
16262;SDS011;8239;48.594;8.598;2022-12-11T09:13:48;10.10;;;6.53;;
16262;SDS011;8239;48.594;8.598;2022-12-11T09:16:17;10.50;;;6.47;;
16262;SDS011;8239;48.594;8.598;2022-12-11T09:18:46;9.50;;;6.20;;
16262;SDS011;8239;48.594;8.598;2022-12-11T09:21:15;10.50;;;6.40;;
16262;SDS011;8239;48.594;8.598;2022-12-11T09:23:44;11.80;;;7.10;;
16262;SDS011;8239;48.594;8.598;2022-12-11T09:26:13;17.50;;;9.87;;
16262;SDS011;8239;48.594;8.598;2022-12-11T09:28:41;16.63;;;10.80;;
16262;SDS011;8239;48.594;8.598;2022-12-11T09:31:09;13.80;;;8.10;;
16262;SDS011;8239;48.594;8.598;2022-12-11T09:33:36;12.47;;;8.63;;
16262;SDS011;8239;48.594;8.598;2022-12-11T09:36:04;12.63;;;10.07;;
16262;SDS011;8239;48.594;8.598;2022-12-11T09:38:32;58.93;;;34.97;;
16262;SDS011;8239;48.594;8.598;2022-12-11T09:41:00;26.47;;;19.17;;
16262;SDS011;8239;48.594;8.598;2022-12-11T09:43:37;14.83;;;10.23;;
16262;SDS011;8239;48.594;8.598;2022-12-11T09:46:09;9.17;;;6.73;;
16262;SDS011;8239;48.594;8.598;2022-12-11T09:48:38;10.03;;;7.27;;
16262;SDS011;8239;48.594;8.598;2022-12-11T09:51:09;9.67;;;6.87;;
16262;SDS011;8239;48.594;8.598;2022-12-11T09:53:43;21.47;;;14.60;;
16262;SDS011;8239;48.594;8.598;2022-12-11T09:56:13;11.47;;;7.90;;
16262;SDS011;8239;48.594;8.598;2022-12-11T09:58:47;12.90;;;8.40;;
16262;SDS011;8239;48.594;8.598;2022-12-11T10:01:29;14.27;;;10.57;;
16262;SDS011;8239;48.594;8.598;2022-12-11T10:04:10;13.73;;;9.13;;
16262;SDS011;8239;48.594;8.598;2022-12-11T10:06:57;14.70;;;11.33;;
16262;SDS011;8239;48.594;8.598;2022-12-11T10:09:31;16.27;;;11.97;;
16262;SDS011;8239;48.594;8.598;2022-12-11T10:12:07;27.77;;;17.97;;
16262;SDS011;8239;48.594;8.598;2022-12-11T10:14:52;12.47;;;8.37;;
16262;SDS011;8239;48.594;8.598;2022-12-11T10:17:30;18.37;;;12.30;;
16262;SDS011;8239;48.594;8.598;2022-12-11T10:20:02;9.13;;;5.93;;
16262;SDS011;8239;48.594;8.598;2022-12-11T10:22:40;13.40;;;10.07;;
16262;SDS011;8239;48.594;8.598;2022-12-11T10:25:13;14.10;;;10.63;;
16262;SDS011;8239;48.594;8.598;2022-12-11T10:27:45;9.87;;;6.47;;
16262;SDS011;8239;48.594;8.598;2022-12-11T10:30:15;8.10;;;5.50;;
16262;SDS011;8239;48.594;8.598;2022-12-11T10:32:47;7.37;;;5.00;;
16262;SDS011;8239;48.594;8.598;2022-12-11T10:35:18;11.97;;;8.73;;
16262;SDS011;8239;48.594;8.598;2022-12-11T10:37:53;7.37;;;4.93;;
16262;SDS011;8239;48.594;8.598;2022-12-11T10:40:26;17.10;;;11.10;;
16262;SDS011;8239;48.594;8.598;2022-12-11T10:42:56;18.17;;;11.17;;
16262;SDS011;8239;48.594;8.598;2022-12-11T10:45:25;20.40;;;12.60;;
16262;SDS011;8239;48.594;8.598;2022-12-11T10:48:00;17.97;;;11.83;;
16262;SDS011;8239;48.594;8.598;2022-12-11T10:50:28;13.90;;;9.60;;
16262;SDS011;8239;48.594;8.598;2022-12-11T10:52:56;14.37;;;9.73;;
16262;SDS011;8239;48.594;8.598;2022-12-11T10:55:24;24.53;;;17.50;;
16262;SDS011;8239;48.594;8.598;2022-12-11T10:57:55;18.20;;;12.20;;
16262;SDS011;8239;48.594;8.598;2022-12-11T11:00:27;14.87;;;10.67;;
16262;SDS011;8239;48.594;8.598;2022-12-11T11:03:01;13.27;;;8.13;;
16262;SDS011;8239;48.594;8.598;2022-12-11T11:05:31;9.07;;;6.30;;
16262;SDS011;8239;48.594;8.598;2022-12-11T11:08:05;10.57;;;6.20;;
16262;SDS011;8239;48.594;8.598;2022-12-11T11:10:48;10.97;;;6.87;;
16262;SDS011;8239;48.594;8.598;2022-12-11T11:13:19;10.77;;;7.47;;
16262;SDS011;8239;48.594;8.598;2022-12-11T11:15:49;12.50;;;8.40;;
16262;SDS011;8239;48.594;8.598;2022-12-11T11:18:24;9.67;;;7.70;;
16262;SDS011;8239;48.594;8.598;2022-12-11T11:20:53;5.40;;;4.40;;
16262;SDS011;8239;48.594;8.598;2022-12-11T11:23:21;6.30;;;4.53;;
16262;SDS011;8239;48.594;8.598;2022-12-11T11:25:50;12.80;;;9.80;;
16262;SDS011;8239;48.594;8.598;2022-12-11T11:28:20;15.13;;;12.70;;
16262;SDS011;8239;48.594;8.598;2022-12-11T11:30:59;10.73;;;7.43;;
16262;SDS011;8239;48.594;8.598;2022-12-11T11:33:29;9.67;;;7.07;;
16262;SDS011;8239;48.594;8.598;2022-12-11T11:36:00;8.60;;;6.40;;
16262;SDS011;8239;48.594;8.598;2022-12-11T11:38:29;8.63;;;6.47;;
16262;SDS011;8239;48.594;8.598;2022-12-11T11:41:03;9.13;;;5.97;;
16262;SDS011;8239;48.594;8.598;2022-12-11T11:43:37;7.50;;;4.60;;
16262;SDS011;8239;48.594;8.598;2022-12-11T11:46:11;4.53;;;3.23;;
16262;SDS011;8239;48.594;8.598;2022-12-11T11:48:43;6.33;;;4.07;;
16262;SDS011;8239;48.594;8.598;2022-12-11T11:51:18;4.43;;;3.30;;
16262;SDS011;8239;48.594;8.598;2022-12-11T11:53:48;15.70;;;12.93;;
16262;SDS011;8239;48.594;8.598;2022-12-11T11:56:19;3.20;;;2.90;;
16262;SDS011;8239;48.594;8.598;2022-12-11T11:58:51;3.90;;;2.60;;
16262;SDS011;8239;48.594;8.598;2022-12-11T12:01:29;3.77;;;2.80;;
16262;SDS011;8239;48.594;8.598;2022-12-11T12:03:57;1.93;;;1.80;;
16262;SDS011;8239;48.594;8.598;2022-12-11T12:06:30;1.43;;;1.30;;
16262;SDS011;8239;48.594;8.598;2022-12-11T12:09:07;1.63;;;1.40;;
16262;SDS011;8239;48.594;8.598;2022-12-11T12:11:44;1.27;;;1.13;;
16262;SDS011;8239;48.594;8.598;2022-12-11T12:14:17;1.30;;;1.10;;
16262;SDS011;8239;48.594;8.598;2022-12-11T12:16:52;1.37;;;0.80;;
16262;SDS011;8239;48.594;8.598;2022-12-11T12:19:34;1.47;;;0.80;;
16262;SDS011;8239;48.594;8.598;2022-12-11T12:22:24;0.80;;;0.80;;
16262;SDS011;8239;48.594;8.598;2022-12-11T12:25:05;4.07;;;1.70;;
16262;SDS011;8239;48.594;8.598;2022-12-11T12:27:43;1.70;;;1.30;;
16262;SDS011;8239;48.594;8.598;2022-12-11T12:30:17;1.30;;;1.20;;
16262;SDS011;8239;48.594;8.598;2022-12-11T12:32:50;2.43;;;2.20;;
16262;SDS011;8239;48.594;8.598;2022-12-11T12:35:33;1.70;;;1.60;;
16262;SDS011;8239;48.594;8.598;2022-12-11T12:38:05;1.20;;;1.10;;
16262;SDS011;8239;48.594;8.598;2022-12-11T12:40:42;1.53;;;1.37;;
16262;SDS011;8239;48.594;8.598;2022-12-11T12:43:31;1.27;;;1.17;;
16262;SDS011;8239;48.594;8.598;2022-12-11T12:46:15;1.93;;;1.20;;
16262;SDS011;8239;48.594;8.598;2022-12-11T12:48:51;3.10;;;2.80;;
16262;SDS011;8239;48.594;8.598;2022-12-11T12:51:20;2.50;;;1.70;;
16262;SDS011;8239;48.594;8.598;2022-12-11T12:53:50;3.20;;;2.10;;
16262;SDS011;8239;48.594;8.598;2022-12-11T12:56:20;2.17;;;2.00;;
16262;SDS011;8239;48.594;8.598;2022-12-11T12:58:48;2.03;;;1.77;;
16262;SDS011;8239;48.594;8.598;2022-12-11T13:01:15;1.40;;;1.30;;
16262;SDS011;8239;48.594;8.598;2022-12-11T13:03:54;1.17;;;0.90;;
16262;SDS011;8239;48.594;8.598;2022-12-11T13:06:30;1.47;;;1.20;;
16262;SDS011;8239;48.594;8.598;2022-12-11T13:09:11;1.33;;;1.10;;
16262;SDS011;8239;48.594;8.598;2022-12-11T13:11:41;1.60;;;1.30;;
16262;SDS011;8239;48.594;8.598;2022-12-11T13:14:21;1.20;;;1.10;;
16262;SDS011;8239;48.594;8.598;2022-12-11T13:17:03;2.07;;;1.10;;
16262;SDS011;8239;48.594;8.598;2022-12-11T13:19:34;2.13;;;1.20;;
16262;SDS011;8239;48.594;8.598;2022-12-11T13:22:02;1.13;;;1.03;;
16262;SDS011;8239;48.594;8.598;2022-12-11T13:24:45;1.13;;;1.00;;
16262;SDS011;8239;48.594;8.598;2022-12-11T13:27:21;1.53;;;1.13;;
16262;SDS011;8239;48.594;8.598;2022-12-11T13:29:50;1.10;;;1.00;;
16262;SDS011;8239;48.594;8.598;2022-12-11T13:32:20;1.43;;;1.00;;
16262;SDS011;8239;48.594;8.598;2022-12-11T13:34:54;3.17;;;1.40;;
16262;SDS011;8239;48.594;8.598;2022-12-11T13:37:24;1.63;;;0.97;;
16262;SDS011;8239;48.594;8.598;2022-12-11T13:39:56;1.47;;;0.70;;
16262;SDS011;8239;48.594;8.598;2022-12-11T13:42:24;0.80;;;0.80;;
16262;SDS011;8239;48.594;8.598;2022-12-11T13:45:06;1.10;;;1.00;;
16262;SDS011;8239;48.594;8.598;2022-12-11T13:47:46;1.13;;;1.03;;
16262;SDS011;8239;48.594;8.598;2022-12-11T13:50:16;1.10;;;1.00;;
16262;SDS011;8239;48.594;8.598;2022-12-11T13:52:53;1.63;;;1.27;;
16262;SDS011;8239;48.594;8.598;2022-12-11T13:55:22;1.10;;;0.83;;
16262;SDS011;8239;48.594;8.598;2022-12-11T13:57:51;0.80;;;0.80;;
16262;SDS011;8239;48.594;8.598;2022-12-11T14:00:19;2.27;;;1.20;;
16262;SDS011;8239;48.594;8.598;2022-12-11T14:02:48;2.00;;;1.40;;
16262;SDS011;8239;48.594;8.598;2022-12-11T14:05:18;1.23;;;1.13;;
16262;SDS011;8239;48.594;8.598;2022-12-11T14:07:46;1.33;;;1.20;;
16262;SDS011;8239;48.594;8.598;2022-12-11T14:10:17;2.13;;;1.27;;
16262;SDS011;8239;48.594;8.598;2022-12-11T14:12:46;1.20;;;1.10;;
16262;SDS011;8239;48.594;8.598;2022-12-11T14:15:17;1.27;;;1.10;;
16262;SDS011;8239;48.594;8.598;2022-12-11T14:17:44;1.60;;;1.20;;
16262;SDS011;8239;48.594;8.598;2022-12-11T14:20:15;1.73;;;1.20;;
16262;SDS011;8239;48.594;8.598;2022-12-11T14:22:45;2.00;;;1.10;;
16262;SDS011;8239;48.594;8.598;2022-12-11T14:25:17;1.30;;;1.20;;
16262;SDS011;8239;48.594;8.598;2022-12-11T14:27:47;2.90;;;2.00;;
16262;SDS011;8239;48.594;8.598;2022-12-11T14:30:21;2.70;;;1.40;;
16262;SDS011;8239;48.594;8.598;2022-12-11T14:32:50;1.63;;;1.30;;
16262;SDS011;8239;48.594;8.598;2022-12-11T14:35:23;2.47;;;1.50;;
16262;SDS011;8239;48.594;8.598;2022-12-11T14:37:54;12.17;;;9.67;;
16262;SDS011;8239;48.594;8.598;2022-12-11T14:40:23;4.23;;;2.57;;
16262;SDS011;8239;48.594;8.598;2022-12-11T14:42:54;2.50;;;1.90;;
16262;SDS011;8239;48.594;8.598;2022-12-11T14:45:27;2.00;;;1.70;;
16262;SDS011;8239;48.594;8.598;2022-12-11T14:47:57;11.43;;;6.70;;
16262;SDS011;8239;48.594;8.598;2022-12-11T14:50:28;5.90;;;3.07;;
16262;SDS011;8239;48.594;8.598;2022-12-11T14:53:02;2.97;;;1.63;;
16262;SDS011;8239;48.594;8.598;2022-12-11T14:55:35;2.30;;;1.50;;
16262;SDS011;8239;48.594;8.598;2022-12-11T14:58:04;2.50;;;1.60;;
16262;SDS011;8239;48.594;8.598;2022-12-11T15:00:39;2.67;;;1.57;;
16262;SDS011;8239;48.594;8.598;2022-12-11T15:03:17;2.57;;;1.53;;
16262;SDS011;8239;48.594;8.598;2022-12-11T15:05:48;2.50;;;1.30;;
16262;SDS011;8239;48.594;8.598;2022-12-11T15:08:19;2.60;;;1.50;;
16262;SDS011;8239;48.594;8.598;2022-12-11T15:10:55;2.43;;;1.17;;
16262;SDS011;8239;48.594;8.598;2022-12-11T15:13:26;1.47;;;1.30;;